Somerset Center, Michigan
Current Conditions -  °F | °C
As of 3:55 PM on Sunday 23 Nov 2014 (Local Time) from KJYM Reporting Station
Moderate Rain Moderate Rain  
Wind Chill: 53°   Ceiling: 2500
Heat Index: 53°   Visibility: 4mi
Dew Point: 52°   Wind: 6mph
Humidity: 97%   Direction: 140°SE
Pressure: 29.64"   Gusts: NA
Location:  42.05°N, 84.41°W
Report Text: KJYM 232055Z AUTO 14005KT 4SM RA SCT020 BKN025 OVC035 12/11 A2964 RMK AO2 T01160112
Loading
Personal Weather Stations






























Interactive Weather Map New forecast layout! Learn more

10-Day Weather Forecast

Advertisements
Track Severe Weather on mobile